Time;durP1;ratioP1;P1;durP2;ratioP2;P2;SDS_P1;SDS_P2;PMS_P1;PMS_P2;Temp;Humidity;BMP_temperature;BMP_pressure;BME280_temperature;BME280_humidity;BME280_pressure;Samples;Min_cycle;Max_cycle;Signal;HPM_P1;HPM_P2
2022/08/01 00:00:25;;;;;;;6.30;3.67;;;;;;;27.07;51.37;100285.50;2102135;28;20093;-77
2022/08/01 00:01:46;;;;;;;5.32;3.33;;;;;;;27.08;51.18;100289.94;2096252;28;20632;-77
2022/08/01 00:03:09;;;;;;;5.47;3.28;;;;;;;27.08;51.25;100287.25;2102759;28;20043;-77
2022/08/01 00:04:30;;;;;;;7.43;3.53;;;;;;;27.07;51.29;100285.50;2111219;28;20051;-77
2022/08/01 00:05:54;;;;;;;6.90;3.70;;;;;;;27.05;51.25;100279.28;2104325;28;20286;-77
2022/08/01 00:07:16;;;;;;;7.38;3.30;;;;;;;27.04;51.42;100280.28;2111152;28;20529;-77
2022/08/01 00:08:37;;;;;;;7.95;3.60;;;;;;;27.02;51.50;100274.94;2105063;28;20056;-77
2022/08/01 00:10:00;;;;;;;7.47;3.63;;;;;;;27.01;51.41;100275.91;2104740;28;20432;-76
2022/08/01 00:11:21;;;;;;;8.18;3.58;;;;;;;27.02;51.42;100274.06;2102330;28;20127;-78
2022/08/01 00:12:45;;;;;;;8.43;3.75;;;;;;;27.01;51.63;100275.91;2102201;28;20085;-78
2022/08/01 00:14:09;;;;;;;6.00;3.50;;;;;;;27.00;51.56;100267.84;2104417;28;20055;-77
2022/08/01 00:15:30;;;;;;;5.05;3.03;;;;;;;26.99;51.63;100275.09;2102831;28;20578;-77
2022/08/01 00:16:53;;;;;;;8.50;3.75;;;;;;;26.97;51.57;100282.47;2106300;28;20051;-77
2022/08/01 00:18:14;;;;;;;7.10;3.72;;;;;;;26.96;51.55;100278.88;2112024;27;20089;-77
2022/08/01 00:19:36;;;;;;;6.00;3.42;;;;;;;26.96;51.77;100280.72;2104153;28;20135;-77
2022/08/01 00:20:59;;;;;;;10.18;4.30;;;;;;;26.96;51.63;100278.00;2110214;28;20074;-77
2022/08/01 00:22:22;;;;;;;7.68;3.63;;;;;;;26.95;51.71;100285.25;2096837;28;20044;-77
2022/08/01 00:23:45;;;;;;;4.53;3.08;;;;;;;26.95;51.63;100276.25;2094426;28;20132;-77
2022/08/01 00:25:08;;;;;;;5.50;2.67;;;;;;;26.95;51.63;100278.97;2106449;28;20043;-77
2022/08/01 00:26:30;;;;;;;7.43;3.58;;;;;;;26.94;51.55;100280.81;2105287;28;20137;-77
2022/08/01 00:27:53;;;;;;;5.07;2.90;;;;;;;26.94;51.59;100278.09;2094365;28;20036;-77
2022/08/01 00:29:15;;;;;;;6.32;2.97;;;;;;;26.94;51.61;100278.09;2102154;28;20048;-78
2022/08/01 00:30:37;;;;;;;4.13;2.90;;;;;;;26.94;51.62;100286.22;2101758;28;20520;-78
2022/08/01 00:31:59;;;;;;;5.13;3.28;;;;;;;26.93;51.42;100283.59;2094479;28;20400;-78
2022/08/01 00:33:21;;;;;;;5.68;3.15;;;;;;;26.93;51.47;100284.47;2100725;28;20073;-78
2022/08/01 00:34:43;;;;;;;6.53;3.38;;;;;;;26.93;51.44;100279.06;2102056;28;20050;-77
2022/08/01 00:36:06;;;;;;;6.40;3.45;;;;;;;26.93;51.45;100286.31;2102857;28;20052;-77
2022/08/01 00:37:29;;;;;;;7.28;3.47;;;;;;;26.90;51.34;100287.38;2101778;28;20052;-77
2022/08/01 00:38:51;;;;;;;6.55;3.55;;;;;;;26.90;51.58;100290.09;2102487;28;20044;-78
2022/08/01 00:40:12;;;;;;;6.68;3.75;;;;;;;26.92;51.69;100288.16;2102816;28;20588;-77
2022/08/01 00:41:35;;;;;;;5.93;3.47;;;;;;;26.93;51.62;100289.91;2094144;28;20048;-77
2022/08/01 00:42:57;;;;;;;5.20;3.03;;;;;;;26.92;51.50;100290.84;2105587;28;20134;-78
2022/08/01 00:44:19;;;;;;;7.25;4.05;;;;;;;26.91;51.46;100286.38;2105502;28;20143;-77
2022/08/01 00:45:41;;;;;;;8.70;3.60;;;;;;;26.90;51.76;100286.50;2095725;28;20475;-77
2022/08/01 00:47:05;;;;;;;9.82;3.60;;;;;;;26.92;51.74;100295.41;2101962;28;20094;-77
2022/08/01 00:48:26;;;;;;;7.20;3.10;;;;;;;26.91;51.57;100291.81;2102706;28;20044;-78
2022/08/01 00:49:49;;;;;;;7.80;3.67;;;;;;;26.90;51.52;100290.09;2090820;28;20056;-77
2022/08/01 00:51:13;;;;;;;5.30;3.25;;;;;;;26.89;51.59;100285.63;2102018;28;20044;-77
2022/08/01 00:52:35;;;;;;;8.18;3.63;;;;;;;26.88;51.77;100283.84;2101808;28;20500;-78
2022/08/01 00:53:58;;;;;;;6.40;3.88;;;;;;;26.88;51.59;100283.84;2094121;28;20041;-77
2022/08/01 00:55:20;;;;;;;7.78;3.92;;;;;;;26.88;51.63;100273.00;2100456;28;20082;-77
2022/08/01 00:56:43;;;;;;;6.13;3.20;;;;;;;26.89;51.83;100282.06;2101564;28;20048;-77
2022/08/01 00:58:06;;;;;;;8.93;4.25;;;;;;;26.91;51.66;100283.69;2102424;28;20044;-77
2022/08/01 00:59:27;;;;;;;7.47;3.45;;;;;;;26.90;51.72;100283.81;2103386;28;20126;-77
2022/08/01 01:00:50;;;;;;;7.25;3.05;;;;;;;26.88;51.72;100281.16;2101673;28;20048;-78
2022/08/01 01:02:12;;;;;;;5.60;3.50;;;;;;;26.86;51.58;100277.63;2110199;28;20554;-78
2022/08/01 01:03:35;;;;;;;5.32;3.28;;;;;;;26.84;51.64;100285.00;2100522;28;20054;-77
2022/08/01 01:04:57;;;;;;;6.68;3.75;;;;;;;26.80;51.68;100267.16;2102181;28;20052;-78
2022/08/01 01:06:34;;;;;;;7.55;4.63;;;;;;;26.77;51.85;100269.22;2101811;28;20679;-77
2022/08/01 01:08:04;;;;;;;7.88;3.03;;;;;;;26.73;51.88;100270.31;2103889;28;20051;-77
2022/08/01 01:09:36;;;;;;;6.43;3.25;;;;;;;26.67;52.08;100271.56;2102722;28;20050;-77
2022/08/01 01:11:02;;;;;;;;;;;;;;;26.62;52.12;100268.25;2103796;28;20087;-77
2022/08/01 01:12:32;;;;;;;5.32;3.45;;;;;;;26.62;52.15;100259.25;2110891;28;19920;-77
2022/08/01 01:14:03;;;;;;;9.82;3.83;;;;;;;26.59;52.28;100252.19;2104302;28;20113;-77
2022/08/01 01:15:33;;;;;;;6.75;3.47;;;;;;;26.58;52.20;100258.59;2108960;28;20051;-77
2022/08/01 01:16:57;;;;;;;7.53;3.85;;;;;;;26.58;52.40;100259.44;2096536;28;20083;-77
2022/08/01 01:18:25;;;;;;;4.97;3.58;;;;;;;26.59;52.51;100255.75;2100035;28;20812;-78
2022/08/01 01:19:52;;;;;;;7.57;3.22;;;;;;;26.57;52.53;100259.53;2101199;28;20059;-77
2022/08/01 01:21:40;;;;;;;8.73;3.22;;;;;;;26.56;52.62;100260.50;2104865;28;20056;-77
2022/08/01 01:23:17;;;;;;;4.78;3.22;;;;;;;26.54;52.55;100257.00;2104343;28;20119;-77
2022/08/01 01:24:46;;;;;;;9.98;4.10;;;;;;;26.51;52.64;100259.91;2104068;28;20055;-77
2022/08/01 01:26:28;;;;;;;6.95;3.65;;;;;;;26.48;52.77;100262.78;2100903;28;20062;-77
2022/08/01 01:27:58;;;;;;;8.38;3.90;;;;;;;26.47;52.90;100259.19;2104086;28;20077;-77
2022/08/01 01:29:26;;;;;;;7.55;3.60;;;;;;;26.50;52.79;100260.84;2101969;28;20075;-77
2022/08/01 01:30:52;;;;;;;8.07;3.83;;;;;;;26.51;52.84;100258.06;2103076;28;20527;-77
2022/08/01 01:32:20;;;;;;;7.13;3.33;;;;;;;26.48;52.82;100254.66;2085987;28;20112;-77
2022/08/01 01:33:44;;;;;;;8.70;3.90;;;;;;;26.47;52.89;100259.19;2101142;28;20045;-77
2022/08/01 01:35:09;;;;;;;8.73;4.10;;;;;;;26.50;52.56;100266.28;2102555;28;20135;-77
2022/08/01 01:36:34;;;;;;;7.13;3.67;;;;;;;26.48;52.83;100258.22;2102867;28;20052;-78
2022/08/01 01:38:12;;;;;;;5.10;3.28;;;;;;;26.46;52.61;100264.69;2104012;28;20063;-77
2022/08/01 01:39:36;;;;;;;9.70;4.30;;;;;;;26.45;52.79;100263.81;2104224;28;20514;-77
2022/08/01 01:41:00;;;;;;;7.30;4.05;;;;;;;26.44;52.77;100261.22;2101839;28;20533;-76
2022/08/01 01:42:26;;;;;;;8.45;3.78;;;;;;;26.44;52.77;100267.50;2101774;28;20052;-77
2022/08/01 01:43:49;;;;;;;7.28;4.07;;;;;;;26.42;52.86;100266.72;2101749;28;20052;-77
2022/08/01 01:45:16;;;;;;;6.32;3.75;;;;;;;26.41;52.74;100266.78;2093459;28;20083;-77
2022/08/01 01:46:40;;;;;;;7.40;4.18;;;;;;;26.38;52.90;100267.88;2091287;28;20076;-77
2022/08/01 01:48:04;;;;;;;8.15;3.97;;;;;;;26.36;52.87;100266.19;2085423;28;20045;-76
2022/08/01 01:49:29;;;;;;;6.53;3.70;;;;;;;26.35;52.63;100267.16;2099759;28;20538;-77
2022/08/01 01:50:54;;;;;;;9.60;3.60;;;;;;;26.33;52.80;100256.41;2096046;28;20443;-77
2022/08/01 01:52:19;;;;;;;8.90;3.60;;;;;;;26.32;52.59;100261.94;2102072;28;20048;-77
2022/08/01 01:53:41;;;;;;;6.88;3.75;;;;;;;26.31;52.66;100260.19;2103078;28;20407;-77
2022/08/01 01:55:08;;;;;;;6.90;3.80;;;;;;;26.31;52.61;100257.47;2104198;28;20035;-77
2022/08/01 01:56:31;;;;;;;9.02;3.55;;;;;;;26.28;52.84;100263.03;2104748;28;20076;-77
2022/08/01 01:57:55;;;;;;;6.40;3.88;;;;;;;26.26;52.91;100265.84;2102760;28;20052;-77
2022/08/01 01:59:23;;;;;;;7.95;3.70;;;;;;;26.27;52.62;100261.28;2099759;28;20044;-77
2022/08/01 02:00:49;;;;;;;7.80;3.92;;;;;;;26.24;52.96;100267.78;2101954;28;20071;-77
2022/08/01 02:02:14;;;;;;;7.22;3.33;;;;;;;26.23;52.69;100257.88;2102622;28;20055;-76
2022/08/01 02:03:39;;;;;;;8.15;4.00;;;;;;;26.21;52.79;100262.50;2094264;28;20042;-77
2022/08/01 02:05:03;;;;;;;8.13;3.58;;;;;;;26.15;52.87;100252.00;2100293;28;20121;-76
2022/08/01 02:06:28;;;;;;;7.50;4.22;;;;;;;26.12;52.76;100258.47;2103851;28;20040;-76
2022/08/01 02:07:53;;;;;;;5.70;3.40;;;;;;;26.10;52.83;100263.09;2101766;28;20044;-76
2022/08/01 02:09:17;;;;;;;8.35;3.47;;;;;;;26.12;52.79;100263.88;2103937;28;20155;-76
2022/08/01 02:10:41;;;;;;;5.57;3.38;;;;;;;26.11;52.90;100262.16;2096115;28;20144;-76
2022/08/01 02:12:05;;;;;;;4.82;3.00;;;;;;;26.11;52.81;100262.16;2099844;28;20508;-77
2022/08/01 02:13:27;;;;;;;5.30;3.75;;;;;;;26.14;52.52;100259.25;2098899;28;20116;-77
2022/08/01 02:14:54;;;;;;;5.65;3.50;;;;;;;26.18;52.37;100263.56;2102227;28;20040;-77
2022/08/01 02:16:20;;;;;;;7.25;3.60;;;;;;;26.19;52.28;100267.09;2091278;28;20102;-76
2022/08/01 02:17:44;;;;;;;5.57;3.38;;;;;;;26.22;51.79;100257.94;2099962;28;20044;-77
2022/08/01 02:19:07;;;;;;;8.65;4.03;;;;;;;26.25;51.72;100268.66;2102206;28;20044;-76
2022/08/01 02:20:31;;;;;;;5.95;3.50;;;;;;;26.28;51.48;100271.16;2102593;28;20086;-77
2022/08/01 02:21:57;;;;;;;7.97;3.80;;;;;;;26.29;51.54;100272.91;2101929;28;20044;-76
2022/08/01 02:23:21;;;;;;;8.10;3.60;;;;;;;26.30;51.55;100271.97;2101827;28;20044;-77
2022/08/01 02:24:50;;;;;;;5.47;3.40;;;;;;;26.31;51.45;100269.16;2110164;28;20411;-76
2022/08/01 02:26:17;;;;;;;5.68;3.72;;;;;;;26.33;51.18;100271.78;2103618;28;20067;-77
2022/08/01 02:27:45;;;;;;;5.00;3.28;;;;;;;26.35;51.13;100270.72;2102322;28;20052;-77
2022/08/01 02:29:13;;;;;;;6.88;4.43;;;;;;;26.38;50.85;100259.75;2094830;28;20664;-76
2022/08/01 02:30:38;;;;;;;4.97;3.20;;;;;;;26.40;50.73;100262.34;2108419;28;20537;-77
2022/08/01 02:32:05;;;;;;;5.30;3.30;;;;;;;26.40;50.69;100268.63;2106149;28;20431;-77
2022/08/01 02:33:36;;;;;;;6.88;3.00;;;;;;;26.39;50.57;100271.41;2103789;28;20036;-76
2022/08/01 02:35:02;;;;;;;7.15;3.38;;;;;;;26.40;50.74;100262.34;2103007;28;20040;-75
2022/08/01 02:36:28;;;;;;;7.05;3.65;;;;;;;26.42;50.37;100266.72;2103349;28;20047;-76
2022/08/01 02:37:51;;;;;;;6.18;3.60;;;;;;;26.43;50.52;100273.00;2109487;28;20054;-77
2022/08/01 02:39:17;;;;;;;7.30;3.30;;;;;;;26.44;50.34;100274.75;2103763;28;20055;-77
2022/08/01 02:40:44;;;;;;;5.32;3.35;;;;;;;26.48;50.33;100273.59;2104059;28;20047;-77
2022/08/01 02:42:10;;;;;;;10.38;3.13;;;;;;;26.48;50.27;100270.91;2101541;28;20499;-76
2022/08/01 02:43:36;;;;;;;6.70;3.72;;;;;;;26.50;50.20;100277.97;2103217;28;20123;-77
2022/08/01 02:44:59;;;;;;;7.07;3.70;;;;;;;26.50;50.17;100286.09;2103931;28;20059;-77
2022/08/01 02:46:28;;;;;;;5.55;3.45;;;;;;;26.53;50.15;100276.91;2105510;28;20064;-77
2022/08/01 02:47:55;;;;;;;9.02;3.88;;;;;;;26.57;50.01;100281.22;2121316;27;20078;-77
2022/08/01 02:49:19;;;;;;;7.97;3.53;;;;;;;26.61;50.01;100279.19;2103191;28;20044;-77
2022/08/01 02:50:45;;;;;;;6.43;3.60;;;;;;;26.63;49.84;100278.13;2102929;28;20044;-77
2022/08/01 02:52:11;;;;;;;7.28;3.65;;;;;;;26.62;50.11;100270.09;2103955;28;20064;-77
2022/08/01 02:53:36;;;;;;;5.78;3.05;;;;;;;26.61;49.95;100269.22;2103790;28;20135;-77
2022/08/01 02:55:01;;;;;;;6.50;3.17;;;;;;;26.62;49.99;100275.50;2095061;28;20052;-77
2022/08/01 02:56:24;;;;;;;7.35;3.88;;;;;;;26.63;49.65;100278.13;2101422;28;20527;-77
2022/08/01 02:57:48;;;;;;;7.80;3.10;;;;;;;26.64;49.82;100279.00;2104947;28;20040;-77
2022/08/01 02:59:15;;;;;;;6.82;2.95;;;;;;;26.62;49.64;100273.69;2102965;28;20487;-77
2022/08/01 03:00:38;;;;;;;7.18;3.25;;;;;;;26.60;49.79;100278.31;2092627;28;20036;-76
2022/08/01 03:02:01;;;;;;;7.35;3.50;;;;;;;26.58;49.74;100272.13;2100129;28;20125;-77
2022/08/01 03:03:26;;;;;;;7.05;3.75;;;;;;;26.56;49.79;100272.22;2094082;28;20049;-77
2022/08/01 03:04:52;;;;;;;6.97;3.50;;;;;;;26.56;49.80;100285.75;2103557;28;20047;-77
2022/08/01 03:06:14;;;;;;;4.82;3.15;;;;;;;26.55;49.72;100283.13;2097155;28;20463;-77
2022/08/01 03:07:38;;;;;;;7.40;4.40;;;;;;;26.53;49.44;100280.50;2103302;28;20067;-77
2022/08/01 03:09:02;;;;;;;6.47;3.50;;;;;;;26.54;49.45;100279.53;2097493;28;20040;-77
2022/08/01 03:10:28;;;;;;;5.93;3.40;;;;;;;26.54;49.40;100289.50;2102963;28;20060;-77
2022/08/01 03:11:52;;;;;;;4.43;2.97;;;;;;;26.57;49.45;100292.03;2104758;28;20130;-76
2022/08/01 03:13:16;;;;;;;6.38;3.67;;;;;;;26.56;49.36;100290.28;2109798;28;20460;-77
2022/08/01 03:14:43;;;;;;;7.65;3.58;;;;;;;26.56;49.39;100287.59;2096885;28;20061;-76
2022/08/01 03:16:08;;;;;;;6.25;3.75;;;;;;;26.56;49.47;100284.88;2101031;28;20553;-77
2022/08/01 03:17:31;;;;;;;9.43;3.78;;;;;;;26.55;49.42;100288.53;2103212;28;20206;-77
2022/08/01 03:18:58;;;;;;;6.07;3.03;;;;;;;26.55;49.05;100285.81;2102671;28;20040;-77
2022/08/01 03:20:24;;;;;;;7.10;3.90;;;;;;;26.56;49.23;100293.88;2103483;28;20044;-77
2022/08/01 03:21:48;;;;;;;6.40;3.60;;;;;;;26.58;48.84;100291.91;2110420;28;20072;-77
2022/08/01 03:23:13;;;;;;;7.28;3.45;;;;;;;26.61;48.87;100287.31;2097334;28;20083;-77
2022/08/01 03:24:39;;;;;;;7.95;3.88;;;;;;;26.62;48.65;100299.88;2102813;28;20148;-76
2022/08/01 03:26:03;;;;;;;9.40;4.15;;;;;;;26.62;48.87;100294.47;2095151;28;20611;-77
2022/08/01 03:27:26;;;;;;;7.25;3.30;;;;;;;26.60;48.77;100294.56;2094465;28;20048;-77
2022/08/01 03:28:48;;;;;;;8.90;3.90;;;;;;;26.62;48.53;100287.22;2107198;28;20138;-77
2022/08/01 03:30:13;;;;;;;6.22;3.20;;;;;;;26.64;48.50;100288.00;2104589;28;20534;-77
2022/08/01 03:31:36;;;;;;;7.40;3.53;;;;;;;26.66;48.41;100286.06;2103550;28;20079;-76
2022/08/01 03:32:59;;;;;;;6.10;3.47;;;;;;;26.68;48.19;100284.16;2094642;28;20144;-77
2022/08/01 03:34:23;;;;;;;5.22;3.28;;;;;;;26.71;48.17;100288.53;2107506;28;20047;-77
2022/08/01 03:35:48;;;;;;;5.25;3.10;;;;;;;26.71;48.32;100291.25;2105973;28;20444;-77
2022/08/01 03:37:18;;;;;;;9.93;3.50;;;;;;;26.74;48.18;100288.34;2111775;28;20043;-77
2022/08/01 03:38:44;;;;;;;7.00;3.00;;;;;;;26.77;48.18;100294.47;2105723;28;20672;-77
2022/08/01 03:40:10;;;;;;;5.05;3.15;;;;;;;26.82;48.07;100284.22;2103054;28;20044;-77
2022/08/01 03:41:38;;;;;;;5.65;3.17;;;;;;;26.87;47.76;100282.09;2102534;28;20102;-77
2022/08/01 03:43:04;;;;;;;7.03;3.90;;;;;;;26.92;47.95;100279.13;2111608;28;20083;-77
2022/08/01 03:44:31;;;;;;;6.05;3.58;;;;;;;26.96;47.59;100281.59;2105650;28;20040;-77
2022/08/01 03:45:53;;;;;;;8.88;3.65;;;;;;;27.04;47.48;100285.69;2106688;28;20120;-77
2022/08/01 03:47:18;;;;;;;5.25;3.05;;;;;;;27.11;47.42;100287.06;2094804;28;20051;-77
2022/08/01 03:48:42;;;;;;;7.07;3.47;;;;;;;27.18;47.09;100280.28;2109272;28;20131;-77
2022/08/01 03:50:09;;;;;;;6.07;3.45;;;;;;;27.27;47.02;100271.59;2111216;28;20059;-77
2022/08/01 03:51:34;;;;;;;6.90;3.83;;;;;;;27.35;46.68;100272.88;2113069;28;20130;-76
2022/08/01 03:53:00;;;;;;;5.55;3.08;;;;;;;27.43;46.69;100272.41;2104813;28;20516;-77
2022/08/01 03:54:25;;;;;;;4.60;2.90;;;;;;;27.53;46.50;100270.03;2102496;28;20066;-76
2022/08/01 03:55:48;;;;;;;5.50;3.15;;;;;;;27.59;46.37;100259.66;2103905;28;20084;-77
2022/08/01 03:57:11;;;;;;;6.60;3.30;;;;;;;27.68;46.20;100267.22;2102475;28;20105;-77
2022/08/01 03:58:35;;;;;;;6.20;3.40;;;;;;;27.77;46.14;100266.63;2096868;28;20114;-77
2022/08/01 03:59:59;;;;;;;7.03;2.90;;;;;;;27.85;46.15;100274.28;2100484;28;20118;-77
2022/08/01 04:01:22;;;;;;;6.85;3.30;;;;;;;27.94;45.86;100267.41;2098048;28;20055;-77
2022/08/01 04:02:45;;;;;;;5.70;3.55;;;;;;;28.00;45.67;100270.59;2110577;28;20049;-77
2022/08/01 04:04:06;;;;;;;6.00;3.40;;;;;;;28.09;45.55;100272.69;2104742;28;20109;-77
2022/08/01 04:05:31;;;;;;;5.97;3.17;;;;;;;28.17;45.50;100271.38;2094689;28;20041;-76
2022/08/01 04:06:54;;;;;;;6.10;3.70;;;;;;;28.25;45.16;100272.63;2102767;28;20079;-77
2022/08/01 04:08:17;;;;;;;5.57;2.97;;;;;;;28.33;45.13;100261.25;2104255;28;20052;-77
2022/08/01 04:09:39;;;;;;;4.07;2.50;;;;;;;28.43;44.74;100267.81;2102949;28;20072;-77
2022/08/01 04:11:02;;;;;;;6.88;3.22;;;;;;;28.50;44.48;100270.03;2094306;28;20131;-76
2022/08/01 04:12:25;;;;;;;5.82;2.97;;;;;;;28.59;44.23;100251.38;2093865;28;20520;-76
2022/08/01 04:13:48;;;;;;;6.18;3.63;;;;;;;28.66;44.15;100263.56;2094715;28;20055;-77
2022/08/01 04:15:09;;;;;;;5.13;2.90;;;;;;;28.74;43.99;100263.94;2104645;28;20044;-77
2022/08/01 04:16:31;;;;;;;5.10;2.90;;;;;;;28.82;43.86;100273.31;2104496;28;20040;-76
2022/08/01 04:17:54;;;;;;;5.20;2.72;;;;;;;28.92;43.93;100273.59;2102483;28;20052;-77
2022/08/01 04:19:15;;;;;;;5.95;2.83;;;;;;;29.01;43.60;100262.09;2102030;28;20039;-77
2022/08/01 04:20:39;;;;;;;6.55;3.47;;;;;;;29.12;43.48;100261.34;2105228;28;20040;-76
2022/08/01 04:22:02;;;;;;;7.15;3.33;;;;;;;29.20;43.29;100259.84;2088817;28;20147;-77
2022/08/01 04:23:28;;;;;;;5.95;3.15;;;;;;;29.29;43.20;100261.91;2100748;28;20044;-76
2022/08/01 04:24:53;;;;;;;6.22;3.25;;;;;;;29.40;42.99;100266.66;2108977;28;20134;-77
2022/08/01 04:26:18;;;;;;;4.80;2.92;;;;;;;29.50;42.71;100265.00;2111511;28;20526;-76
2022/08/01 04:27:46;;;;;;;4.90;3.08;;;;;;;29.60;42.34;100259.78;2105237;28;20054;-77
2022/08/01 04:29:10;;;;;;;5.18;2.95;;;;;;;29.73;42.04;100270.66;2111588;28;20054;-77
2022/08/01 04:30:38;;;;;;;5.65;2.97;;;;;;;29.83;41.95;100267.16;2096203;28;20492;-76
2022/08/01 04:32:02;;;;;;;7.78;3.35;;;;;;;29.95;41.71;100259.97;2092591;28;20063;-77
2022/08/01 04:33:27;;;;;;;6.55;3.35;;;;;;;30.03;41.48;100269.34;2101553;28;20047;-77
2022/08/01 04:34:51;;;;;;;3.90;3.00;;;;;;;30.13;40.96;100269.53;2102310;28;20047;-77
2022/08/01 04:36:16;;;;;;;6.15;3.38;;;;;;;30.25;40.80;100270.50;2102345;28;20079;-76
2022/08/01 04:37:41;;;;;;;7.18;3.17;;;;;;;30.36;40.62;100273.28;2102336;28;20044;-77
2022/08/01 04:39:05;;;;;;;6.30;3.42;;;;;;;30.47;40.21;100273.34;2102738;28;20096;-77
2022/08/01 04:40:28;;;;;;;7.88;3.33;;;;;;;30.60;40.07;100271.47;2104127;28;20039;-77
2022/08/01 04:41:52;;;;;;;5.90;2.97;;;;;;;30.72;40.04;100269.69;2103959;28;20052;-77
2022/08/01 04:43:15;;;;;;;5.90;2.90;;;;;;;30.84;39.54;100272.38;2102731;28;20052;-77
2022/08/01 04:44:38;;;;;;;5.60;3.00;;;;;;;31.00;39.24;100271.16;2096797;28;20070;-77
2022/08/01 04:46:03;;;;;;;5.03;2.92;;;;;;;31.12;38.83;100264.78;2093997;28;20761;-77
2022/08/01 04:47:27;;;;;;;6.25;3.13;;;;;;;31.20;38.56;100271.41;2094603;28;20060;-77
2022/08/01 04:48:50;;;;;;;5.53;3.40;;;;;;;31.32;38.41;100258.66;2103851;28;20044;-77
2022/08/01 04:50:12;;;;;;;5.10;2.92;;;;;;;31.46;38.02;100258.44;2103699;28;20124;-77
2022/08/01 04:51:36;;;;;;;4.78;3.20;;;;;;;31.59;37.78;100247.41;2102112;28;20055;-76
2022/08/01 04:52:58;;;;;;;4.15;3.03;;;;;;;31.74;37.57;100256.25;2101951;28;20068;-77
2022/08/01 04:54:21;;;;;;;5.20;2.92;;;;;;;31.88;37.47;100250.56;2096502;28;20055;-77
2022/08/01 04:55:43;;;;;;;8.38;3.00;;;;;;;32.01;36.75;100260.34;2101771;28;20469;-77
2022/08/01 04:57:07;;;;;;;5.45;3.10;;;;;;;32.15;36.38;100262.00;2102404;28;20101;-77
2022/08/01 04:58:29;;;;;;;4.43;2.80;;;;;;;32.29;36.34;100259.00;2093159;28;20072;-77
2022/08/01 04:59:56;;;;;;;6.30;3.03;;;;;;;32.39;35.88;100265.44;2099331;28;20040;-77
2022/08/01 05:01:18;;;;;;;5.28;3.10;;;;;;;32.56;35.72;100254.97;2102956;28;20040;-77
2022/08/01 05:02:41;;;;;;;4.80;2.97;;;;;;;32.72;35.25;100256.28;2101733;28;20549;-76
2022/08/01 05:04:02;;;;;;;4.72;2.67;;;;;;;32.83;34.84;100258.09;2101598;28;20131;-77
2022/08/01 05:05:26;;;;;;;5.85;3.42;;;;;;;32.93;34.71;100259.06;2088702;28;20050;-76
2022/08/01 05:06:49;;;;;;;6.65;2.75;;;;;;;33.10;34.38;100260.34;2102343;28;20066;-76
2022/08/01 05:08:12;;;;;;;3.83;2.72;;;;;;;33.22;34.06;100265.66;2096769;28;20060;-77
2022/08/01 05:09:35;;;;;;;4.00;2.70;;;;;;;33.34;33.85;100261.00;2107351;28;20495;-76
2022/08/01 05:10:58;;;;;;;3.55;2.63;;;;;;;33.44;33.79;100253.72;2096437;28;20436;-76
2022/08/01 05:12:20;;;;;;;5.55;2.90;;;;;;;33.63;33.69;100267.50;2102479;28;20079;-76
2022/08/01 05:13:43;;;;;;;6.53;3.13;;;;;;;33.86;33.81;100271.00;2102961;28;20114;-77
2022/08/01 05:15:06;;;;;;;7.50;2.92;;;;;;;34.06;33.50;100268.34;2102072;28;20052;-77
2022/08/01 05:16:29;;;;;;;5.03;2.75;;;;;;;34.13;33.36;100259.41;2103838;28;20048;-76
2022/08/01 05:17:51;;;;;;;6.85;2.90;;;;;;;34.24;33.38;100270.28;2101288;28;20117;-76
2022/08/01 05:19:14;;;;;;;5.22;2.55;;;;;;;34.40;33.33;100262.38;2101930;28;20047;-76
2022/08/01 05:20:36;;;;;;;4.07;2.65;;;;;;;34.54;33.24;100269.34;2102066;28;20115;-76
2022/08/01 05:22:01;;;;;;;8.63;2.78;;;;;;;34.68;33.23;100268.94;2104482;28;20085;-76
2022/08/01 05:23:23;;;;;;;4.82;2.80;;;;;;;34.84;33.20;100270.28;2109812;28;20040;-76
2022/08/01 05:24:46;;;;;;;5.30;3.05;;;;;;;34.95;32.94;100259.16;2104997;28;20052;-75
2022/08/01 05:26:09;;;;;;;4.32;2.85;;;;;;;35.01;32.83;100258.59;2102059;28;20052;-76
2022/08/01 05:27:32;;;;;;;4.90;3.20;;;;;;;35.05;32.90;100271.03;2102017;28;20044;-77
2022/08/01 05:28:53;;;;;;;5.50;3.05;;;;;;;35.18;32.85;100263.34;2097248;28;20048;-77
2022/08/01 05:30:16;;;;;;;4.95;3.22;;;;;;;35.26;32.56;100263.50;2108360;28;20047;-76
2022/08/01 05:31:38;;;;;;;6.68;2.60;;;;;;;35.37;32.80;100265.25;2110496;28;20047;-77
2022/08/01 05:32:59;;;;;;;4.60;2.75;;;;;;;35.48;32.54;100271.44;2102671;28;20039;-76
2022/08/01 05:34:22;;;;;;;6.07;2.78;;;;;;;35.63;32.48;100266.34;2109051;28;20148;-76
2022/08/01 05:35:43;;;;;;;7.03;3.05;;;;;;;35.82;32.29;100263.56;2107726;28;20534;-77
2022/08/01 05:37:08;;;;;;;7.10;3.40;;;;;;;36.06;32.13;100257.50;2093629;28;20055;-76
2022/08/01 05:38:30;;;;;;;7.50;2.90;;;;;;;36.18;31.95;100249.97;2101084;28;20054;-76
2022/08/01 05:39:52;;;;;;;4.70;2.95;;;;;;;36.17;31.68;100256.50;2108517;28;20050;-77
2022/08/01 05:41:15;;;;;;;5.22;2.78;;;;;;;36.08;31.78;100260.97;2104793;28;20105;-76
2022/08/01 05:42:37;;;;;;;7.30;3.08;;;;;;;36.16;32.00;100263.84;2110338;28;20039;-77
2022/08/01 05:43:59;;;;;;;4.13;2.50;;;;;;;36.34;31.54;100256.53;2104694;28;20036;-77
2022/08/01 05:45:21;;;;;;;4.13;2.60;;;;;;;36.45;31.43;100252.69;2110159;28;20051;-76
2022/08/01 05:46:42;;;;;;;5.97;2.75;;;;;;;36.47;31.62;100253.41;2104480;28;20047;-76
2022/08/01 05:48:05;;;;;;;5.00;2.97;;;;;;;36.48;31.36;100259.78;2101891;28;20459;-76
2022/08/01 05:49:28;;;;;;;6.18;2.80;;;;;;;36.39;31.35;100257.94;2102985;28;20059;-77
2022/08/01 05:50:50;;;;;;;5.72;2.58;;;;;;;36.40;31.36;100259.69;2099800;28;20059;-75
2022/08/01 05:52:14;;;;;;;4.30;2.60;;;;;;;36.44;31.54;100258.34;2109647;28;20044;-76
2022/08/01 05:53:37;;;;;;;5.07;3.20;;;;;;;36.45;31.50;100258.19;2101755;28;20035;-76
2022/08/01 05:55:00;;;;;;;4.32;2.65;;;;;;;36.59;31.43;100262.31;2101088;28;20588;-76
2022/08/01 05:56:22;;;;;;;4.68;2.95;;;;;;;36.72;31.14;100260.06;2095902;28;20056;-76
2022/08/01 05:57:45;;;;;;;6.70;2.70;;;;;;;36.82;31.05;100249.88;2105851;28;20051;-76
2022/08/01 05:59:07;;;;;;;6.72;3.03;;;;;;;36.86;30.75;100256.78;2096330;28;20036;-76
2022/08/01 06:00:29;;;;;;;6.80;2.85;;;;;;;36.84;30.55;100256.06;2103631;28;20043;-76
2022/08/01 06:01:51;;;;;;;8.00;3.10;;;;;;;36.87;30.46;100253.00;2095916;28;20082;-76
2022/08/01 06:03:14;;;;;;;7.22;2.92;;;;;;;36.94;30.19;100261.50;2106996;28;20067;-76
2022/08/01 06:04:36;;;;;;;6.05;2.83;;;;;;;37.06;30.20;100250.09;2102728;28;20192;-76
2022/08/01 06:05:59;;;;;;;6.30;2.83;;;;;;;37.23;29.74;100264.88;2102948;28;20048;-75
2022/08/01 06:07:23;;;;;;;7.57;3.17;;;;;;;37.25;29.53;100260.06;2102992;28;20044;-76
2022/08/01 06:08:46;;;;;;;7.25;3.50;;;;;;;37.26;29.55;100253.53;2102148;28;20048;-75
2022/08/01 06:10:10;;;;;;;5.25;2.97;;;;;;;37.27;29.31;100251.66;2095000;28;20615;-75
2022/08/01 06:11:32;;;;;;;7.60;3.55;;;;;;;37.33;29.26;100253.78;2111614;28;20109;-75
2022/08/01 06:12:53;;;;;;;4.95;2.88;;;;;;;37.45;29.04;100258.84;2106189;28;20051;-75
2022/08/01 06:14:16;;;;;;;4.90;2.95;;;;;;;37.54;28.81;100265.31;2103804;28;20051;-75
2022/08/01 06:15:38;;;;;;;5.30;3.17;;;;;;;37.68;28.64;100267.47;2109187;28;20531;-75
2022/08/01 06:17:00;;;;;;;;;;;;;;;37.62;28.59;100262.59;2103838;28;20044;-75
2022/08/01 06:18:23;;;;;;;4.32;2.70;;;;;;;37.79;28.82;100260.84;2105317;28;19920;-75
2022/08/01 06:19:46;;;;;;;5.18;2.90;;;;;;;37.77;28.47;100258.22;2104144;28;20122;-75
2022/08/01 06:21:08;;;;;;;4.47;2.90;;;;;;;37.81;28.42;100267.06;2101995;28;20074;-74
2022/08/01 06:22:31;;;;;;;5.43;2.80;;;;;;;37.87;28.08;100264.50;2103164;28;20051;-75
2022/08/01 06:23:53;;;;;;;4.47;2.92;;;;;;;37.76;28.06;100273.03;2102585;28;20078;-75
2022/08/01 06:25:16;;;;;;;5.35;2.55;;;;;;;37.71;28.13;100258.88;2094496;28;20563;-75
2022/08/01 06:26:38;;;;;;;5.88;2.78;;;;;;;37.74;28.27;100264.09;2100160;28;20081;-75
2022/08/01 06:27:59;;;;;;;3.63;2.67;;;;;;;37.79;28.47;100267.22;2094727;28;20036;-75
2022/08/01 06:29:22;;;;;;;8.57;3.22;;;;;;;37.90;28.27;100266.91;2100373;28;20547;-75
2022/08/01 06:30:43;;;;;;;4.60;2.75;;;;;;;37.81;28.35;100259.63;2102510;28;20229;-75
2022/08/01 06:32:06;;;;;;;4.45;2.75;;;;;;;37.81;28.27;100267.06;2102886;28;20109;-75